Terminal Aerodrome Forecast
Issued by NWS

Home | Current Version | Previous Version | Text Only | Print | Product List | Glossary On
Versions: 1 2 3 4 5 6 7 8 9 10 11 12 13 14 15 16 17 18 19
000
FTUS41 KCAR 241724
TAFPQI
TAF
KPQI 241724Z 2418/2518 07010KT 2SM -SNPL OVC050
     FM242100 07012KT 1SM -PL OVC015 WS020/09040KT
     FM250200 06009KT 2SM -PL OVC010 WS020/09040KT
     FM251200 05009KT 2SM -FZRAPL OVC015=

USA.gov is the U.S. government's official web portal to all federal, state and local government web resources and services.